createdAt,value
2019-03-22T00:00:27.227Z,30.20
2019-03-22T00:02:56.807Z,29.33
2019-03-22T00:05:26.440Z,30.50
2019-03-22T00:07:56.102Z,30.13
2019-03-22T00:10:25.787Z,29.67
2019-03-22T00:12:55.447Z,31.70
2019-03-22T00:15:25.131Z,31.43
2019-03-22T00:17:54.739Z,32.60
2019-03-22T00:20:24.315Z,33.90
2019-03-22T00:22:53.878Z,34.97
2019-03-22T00:25:23.470Z,34.27
2019-03-22T00:27:53.039Z,35.67
2019-03-22T00:30:22.773Z,35.27
2019-03-22T00:32:54.049Z,34.20
2019-03-22T00:35:23.456Z,34.23
2019-03-22T00:37:53.052Z,33.23
2019-03-22T00:40:22.695Z,38.00
2019-03-22T00:42:52.278Z,41.07
2019-03-22T00:45:21.813Z,41.30
2019-03-22T00:47:51.319Z,41.90
2019-03-22T00:50:21.020Z,41.10
2019-03-22T00:52:50.570Z,41.43
2019-03-22T00:55:20.175Z,42.63
2019-03-22T00:57:49.679Z,45.00
2019-03-22T01:00:19.310Z,44.00
2019-03-22T01:02:48.923Z,44.10
2019-03-22T01:05:18.523Z,43.47
2019-03-22T01:07:48.221Z,44.00
2019-03-22T01:10:17.870Z,45.30
2019-03-22T01:12:47.463Z,50.67
2019-03-22T01:15:17.142Z,44.23
2019-03-22T01:17:46.672Z,42.23
2019-03-22T01:20:16.291Z,42.00
2019-03-22T01:22:45.975Z,45.20
2019-03-22T01:25:15.584Z,45.70
2019-03-22T01:27:45.219Z,48.27
2019-03-22T01:30:15.305Z,49.40
2019-03-22T01:32:44.823Z,46.20
2019-03-22T01:35:14.959Z,42.63
2019-03-22T01:37:44.548Z,38.83
2019-03-22T01:40:16.119Z,39.63
2019-03-22T01:42:45.781Z,42.50
2019-03-22T01:45:16.514Z,40.03
2019-03-22T01:47:46.168Z,43.07
2019-03-22T01:50:16.451Z,44.37
2019-03-22T01:52:46.076Z,46.50
2019-03-22T01:55:15.747Z,47.70
2019-03-22T01:57:52.902Z,49.43
2019-03-22T02:00:17.510Z,50.67
2019-03-22T02:02:47.275Z,50.07
2019-03-22T02:05:16.826Z,47.53
2019-03-22T02:07:46.454Z,48.30
2019-03-22T02:10:16.340Z,50.07
2019-03-22T02:12:46.008Z,54.67
2019-03-22T02:15:16.825Z,58.90
2019-03-22T02:17:46.697Z,54.73
2019-03-22T02:20:18.097Z,57.60
2019-03-22T02:25:33.408Z,57.07
2019-03-22T02:28:04.344Z,61.30
2019-03-22T02:30:34.289Z,60.40
2019-03-22T02:33:03.907Z,59.33
2019-03-22T02:35:33.536Z,60.33
2019-03-22T02:38:03.075Z,55.53
2019-03-22T02:40:32.582Z,54.53
2019-03-22T02:43:02.174Z,51.40
2019-03-22T02:45:31.807Z,58.07
2019-03-22T02:48:01.459Z,58.53
2019-03-22T02:50:31.171Z,57.50
2019-03-22T02:53:00.738Z,58.70
2019-03-22T02:55:30.245Z,57.53
2019-03-22T02:57:59.888Z,52.97
2019-03-22T03:00:29.569Z,56.50
2019-03-22T03:02:59.185Z,59.77
2019-03-22T03:05:28.904Z,56.30
2019-03-22T03:07:58.601Z,55.53
2019-03-22T03:10:28.207Z,54.43
2019-03-22T03:12:57.840Z,53.13
2019-03-22T03:15:27.560Z,54.40
2019-03-22T03:17:57.121Z,61.57
2019-03-22T03:20:26.782Z,58.13
2019-03-22T03:22:56.389Z,57.77
2019-03-22T03:25:26.000Z,60.37
2019-03-22T03:27:55.562Z,59.13
2019-03-22T03:30:25.244Z,53.70
2019-03-22T03:32:54.928Z,57.63
2019-03-22T03:35:24.473Z,62.97
2019-03-22T03:37:54.124Z,63.37
2019-03-22T03:40:23.761Z,64.60
2019-03-22T03:42:53.371Z,62.70
2019-03-22T03:45:35.855Z,63.60
2019-03-22T03:48:06.975Z,60.93
2019-03-22T03:50:36.674Z,60.47
2019-03-22T03:53:06.929Z,63.60
2019-03-22T03:55:36.534Z,62.47
2019-03-22T03:58:06.465Z,58.83
2019-03-22T04:00:36.087Z,62.40
2019-03-22T04:03:05.858Z,62.17
2019-03-22T04:05:35.495Z,59.77
2019-03-22T04:08:05.595Z,59.73
2019-03-22T04:10:35.254Z,64.20
2019-03-22T04:13:04.929Z,58.57
2019-03-22T04:15:34.514Z,59.83
2019-03-22T04:18:04.219Z,66.43
2019-03-22T04:20:34.003Z,61.47
2019-03-22T04:23:03.651Z,59.77
2019-03-22T04:25:33.427Z,64.03
2019-03-22T04:28:03.024Z,61.97
2019-03-22T04:30:32.686Z,63.83
2019-03-22T04:33:02.368Z,62.97
2019-03-22T04:35:32.078Z,71.27
2019-03-22T04:38:01.616Z,65.93
2019-03-22T04:40:31.240Z,65.83
2019-03-22T04:43:00.895Z,66.03
2019-03-22T04:45:31.598Z,67.23
2019-03-22T04:48:06.070Z,67.47
2019-03-22T04:50:39.210Z,71.77
2019-03-22T04:53:11.535Z,68.60
2019-03-22T04:55:44.044Z,64.77
2019-03-22T04:58:15.013Z,64.67
2019-03-22T05:00:45.211Z,69.57
2019-03-22T05:03:15.097Z,68.30
2019-03-22T05:05:46.259Z,69.03
2019-03-22T05:08:17.341Z,70.27
2019-03-22T05:10:47.054Z,72.97
2019-03-22T05:13:19.571Z,72.90
2019-03-22T05:15:49.791Z,66.50
2019-03-22T05:18:19.922Z,62.17
2019-03-22T05:20:52.300Z,65.77
2019-03-22T05:23:23.764Z,68.23
2019-03-22T05:25:56.550Z,67.13
2019-03-22T05:28:28.118Z,66.13
2019-03-22T05:31:40.076Z,68.10
2019-03-22T05:34:09.772Z,69.33
2019-03-22T05:36:39.342Z,71.60
2019-03-22T05:39:10.239Z,70.07
2019-03-22T05:41:39.848Z,63.63
2019-03-22T05:44:09.429Z,65.80
2019-03-22T05:46:39.031Z,69.17
2019-03-22T05:49:08.648Z,71.23
2019-03-22T05:51:38.213Z,68.47
2019-03-22T05:54:08.396Z,71.17
2019-03-22T05:56:38.050Z,67.67
2019-03-22T05:59:07.788Z,68.50
2019-03-22T06:01:37.412Z,65.87
2019-03-22T06:04:07.022Z,66.13
2019-03-22T06:06:36.647Z,64.73
2019-03-22T06:09:08.631Z,67.43
2019-03-22T06:11:38.245Z,74.03
2019-03-22T06:14:07.876Z,71.50
2019-03-22T06:16:37.480Z,72.73
2019-03-22T06:19:07.161Z,72.83
2019-03-22T06:21:36.803Z,78.07
2019-03-22T06:24:06.472Z,74.93
2019-03-22T06:26:36.068Z,72.87
2019-03-22T06:29:05.684Z,70.93
2019-03-22T06:31:35.248Z,73.03
2019-03-22T06:34:04.855Z,74.60
2019-03-22T06:36:34.459Z,74.60
2019-03-22T06:39:06.471Z,75.33
2019-03-22T06:41:36.128Z,70.03
2019-03-22T06:44:05.662Z,71.17
2019-03-22T06:46:35.310Z,74.70
2019-03-22T06:49:05.191Z,73.83
2019-03-22T06:51:35.043Z,77.67
2019-03-22T06:54:04.658Z,74.60
2019-03-22T06:56:34.239Z,74.03
2019-03-22T06:59:04.179Z,74.10
2019-03-22T07:01:33.941Z,79.90
2019-03-22T07:04:03.486Z,72.97
2019-03-22T07:06:33.056Z,73.77
2019-03-22T07:09:02.654Z,76.23
2019-03-22T07:11:32.232Z,75.20
2019-03-22T07:14:01.797Z,73.53
2019-03-22T07:16:31.312Z,76.77
2019-03-22T07:19:00.965Z,80.33
2019-03-22T07:21:30.598Z,81.23
2019-03-22T07:24:00.195Z,77.80
2019-03-22T07:26:30.191Z,80.10
2019-03-22T07:28:59.996Z,77.97
2019-03-22T07:31:30.091Z,77.70
2019-03-22T07:33:59.872Z,78.70
2019-03-22T07:36:29.571Z,75.67
2019-03-22T07:38:59.449Z,77.43
2019-03-22T07:41:29.254Z,75.73
2019-03-22T07:43:59.127Z,78.50
2019-03-22T07:46:28.885Z,75.77
2019-03-22T07:48:58.587Z,77.67
2019-03-22T07:51:28.322Z,75.30
2019-03-22T07:53:58.924Z,77.63
2019-03-22T07:56:30.134Z,78.17
2019-03-22T07:58:59.981Z,75.53
2019-03-22T08:01:29.503Z,72.03
2019-03-22T08:03:59.563Z,72.37
2019-03-22T12:46:09.317Z,52.70
2019-03-22T12:48:39.026Z,52.40
2019-03-22T12:51:08.752Z,50.87
2019-03-22T12:53:43.944Z,52.50
2019-03-22T12:56:35.597Z,52.23
2019-03-22T12:59:16.439Z,50.37
2019-03-22T13:01:46.790Z,51.20
2019-03-22T13:04:18.066Z,52.27
2019-03-22T13:06:50.406Z,51.70
2019-03-22T13:09:21.168Z,50.13
2019-03-22T13:11:52.646Z,50.53
2019-03-22T13:14:23.792Z,51.00
2019-03-22T13:16:55.221Z,50.47
2019-03-22T13:19:27.596Z,49.23
2019-03-22T13:21:58.690Z,47.23
2019-03-22T13:24:31.583Z,48.73
2019-03-22T13:27:02.759Z,48.83
2019-03-22T13:29:33.186Z,52.80
2019-03-22T13:32:04.083Z,49.27
2019-03-22T13:34:34.697Z,48.63
2019-03-22T13:37:05.627Z,47.73
2019-03-22T13:39:38.130Z,49.27
2019-03-22T13:42:09.418Z,50.40
2019-03-22T13:44:40.224Z,49.60
2019-03-22T13:47:12.723Z,50.97
2019-03-22T13:49:55.819Z,50.20
2019-03-22T13:52:27.976Z,49.57
2019-03-22T13:55:02.019Z,48.43
2019-03-22T13:57:32.828Z,49.97
2019-03-22T14:00:05.570Z,47.50
2019-03-22T14:02:36.302Z,48.00
2019-03-22T14:05:08.907Z,50.20
2019-03-22T14:07:40.183Z,47.63
2019-03-22T14:10:23.001Z,50.93
2019-03-22T14:12:54.609Z,48.67
2019-03-22T14:15:37.673Z,54.13
2019-03-22T14:18:08.497Z,54.30
2019-03-22T14:20:41.196Z,58.53
2019-03-22T14:23:11.906Z,55.80
2019-03-22T14:25:42.670Z,54.77
2019-03-22T14:28:16.645Z,55.50
2019-03-22T14:30:47.002Z,55.80
2019-03-22T14:33:16.654Z,54.20
2019-03-22T14:35:47.793Z,55.43
2019-03-22T14:38:17.656Z,55.07
2019-03-22T14:40:47.252Z,54.23
2019-03-22T14:43:16.876Z,55.63
2019-03-22T14:45:46.466Z,57.47
2019-03-22T14:48:20.013Z,53.33
2019-03-22T14:50:49.568Z,55.60
2019-03-22T14:53:19.023Z,53.50
2019-03-22T14:55:48.584Z,56.63
2019-03-22T14:58:18.025Z,57.20
2019-03-22T15:00:48.307Z,57.23
2019-03-22T15:03:25.498Z,57.90
2019-03-22T15:05:56.343Z,56.70
2019-03-22T15:08:25.972Z,54.43
2019-03-22T15:10:55.673Z,57.50
2019-03-22T15:13:29.981Z,63.17
2019-03-22T15:16:21.876Z,55.23
2019-03-22T15:19:18.323Z,58.50
2019-03-22T15:22:00.303Z,54.43
2019-03-22T15:24:48.977Z,57.27
2019-03-22T15:27:40.201Z,60.67
2019-03-22T15:30:29.460Z,59.30
2019-03-22T15:33:18.395Z,64.27
2019-03-22T15:36:02.781Z,60.33
2019-03-22T15:38:54.245Z,67.17
2019-03-22T15:41:25.423Z,71.70
2019-03-22T15:43:56.698Z,68.60
2019-03-22T15:46:27.551Z,64.70
2019-03-22T15:48:57.963Z,69.97
2019-03-22T15:51:29.534Z,64.10
2019-03-22T15:54:01.228Z,61.03
2019-03-22T15:56:31.892Z,59.73
2019-03-22T15:59:02.177Z,66.80
2019-03-22T16:01:33.209Z,62.63
2019-03-22T16:04:03.597Z,70.50
2019-03-22T16:06:34.270Z,64.20
2019-03-22T16:09:06.770Z,66.47
2019-03-22T16:11:37.540Z,62.33
2019-03-22T16:14:07.510Z,69.47
2019-03-22T16:16:37.176Z,54.33
2019-03-22T16:19:07.264Z,54.90
2019-03-22T16:21:37.383Z,53.80
2019-03-22T16:24:06.968Z,48.50
2019-03-22T16:26:36.826Z,59.27
2019-03-22T16:29:06.833Z,53.77
2019-03-22T16:31:36.479Z,54.10
2019-03-22T16:34:06.266Z,60.10
2019-03-22T16:36:35.695Z,60.03
2019-03-22T16:39:08.408Z,65.17
2019-03-22T16:41:37.954Z,61.97
2019-03-22T16:44:07.400Z,55.97
2019-03-22T16:46:36.995Z,56.07
2019-03-22T16:49:06.645Z,56.93
2019-03-22T16:51:36.156Z,58.43
2019-03-22T16:54:06.840Z,62.47
2019-03-22T16:56:36.446Z,61.60
2019-03-22T16:59:06.211Z,60.80
2019-03-22T17:01:35.872Z,64.87
2019-03-22T17:04:05.723Z,66.07
2019-03-22T17:06:35.395Z,67.60
2019-03-22T17:09:07.086Z,69.03
2019-03-22T17:11:36.857Z,67.90
2019-03-22T17:14:06.487Z,70.03
2019-03-22T17:16:40.149Z,66.37
2019-03-22T17:19:09.772Z,64.80
2019-03-22T17:21:39.383Z,64.33
2019-03-22T17:24:08.938Z,69.37
2019-03-22T17:26:38.532Z,78.03
2019-03-22T17:29:08.162Z,81.27
2019-03-22T17:31:37.786Z,76.57
2019-03-22T17:34:14.150Z,58.63
2019-03-22T17:36:38.803Z,60.60
2019-03-22T17:39:08.631Z,50.50
2019-03-22T17:41:38.280Z,49.07
2019-03-22T17:44:07.915Z,51.77
2019-03-22T17:46:37.499Z,46.87
2019-03-22T17:49:07.145Z,48.50
2019-03-22T17:51:36.839Z,39.97
2019-03-22T17:54:06.435Z,44.90
2019-03-22T17:56:36.010Z,49.93
2019-03-22T17:59:05.645Z,46.73
2019-03-22T18:01:35.325Z,48.50
2019-03-22T18:04:04.879Z,49.20
2019-03-22T18:06:34.543Z,55.77
2019-03-22T18:09:06.231Z,59.27
2019-03-22T18:11:35.828Z,64.60
2019-03-22T18:14:05.513Z,56.00
2019-03-22T18:16:35.144Z,58.43
2019-03-22T18:19:04.775Z,59.50
2019-03-22T18:21:34.290Z,57.00
2019-03-22T18:24:04.062Z,57.07
2019-03-22T18:26:33.616Z,56.27
2019-03-22T18:29:03.159Z,59.17
2019-03-22T18:31:32.783Z,66.30
2019-03-22T18:34:02.411Z,60.20
2019-03-22T18:36:31.988Z,68.87
2019-03-22T18:39:01.607Z,68.03
2019-03-22T18:41:31.195Z,55.90
2019-03-22T18:44:00.840Z,62.93
2019-03-22T18:46:30.455Z,57.77
2019-03-22T18:49:00.115Z,64.90
2019-03-22T18:51:29.733Z,62.23
2019-03-22T18:53:59.392Z,60.90
2019-03-22T18:56:29.088Z,60.33
2019-03-22T18:58:58.717Z,57.03
2019-03-22T19:01:28.249Z,59.60
2019-03-22T19:03:58.255Z,57.10
2019-03-22T19:06:27.888Z,55.23
2019-03-22T19:08:57.419Z,55.30
2019-03-22T19:11:27.053Z,53.33
2019-03-22T19:13:56.750Z,52.20
2019-03-22T19:16:26.365Z,55.53
2019-03-22T19:18:55.916Z,43.83
2019-03-22T19:21:25.484Z,56.30
2019-03-22T19:23:55.171Z,49.17
2019-03-22T19:26:24.781Z,53.90
2019-03-22T19:28:54.399Z,51.03
2019-03-22T19:31:24.051Z,52.97
2019-03-22T19:33:53.621Z,42.40
2019-03-22T19:36:23.321Z,54.80
2019-03-22T19:38:52.963Z,54.33
2019-03-22T19:41:22.437Z,49.53
2019-03-22T19:43:52.071Z,54.47
2019-03-22T19:46:21.718Z,56.57
2019-03-22T19:48:51.380Z,53.57
2019-03-22T19:51:20.847Z,52.67
2019-03-22T19:53:50.416Z,56.50
2019-03-22T19:56:20.088Z,52.27
2019-03-22T19:58:49.767Z,59.77
2019-03-22T20:01:19.428Z,45.77
2019-03-22T20:03:49.048Z,53.97
2019-03-22T20:06:18.677Z,52.37
2019-03-22T20:08:48.350Z,57.03
2019-03-22T20:11:18.046Z,52.43
2019-03-22T20:13:47.720Z,58.80
2019-03-22T20:16:17.327Z,55.83
2019-03-22T20:18:47.023Z,53.53
2019-03-22T20:21:16.639Z,51.30
2019-03-22T20:23:53.521Z,50.17
2019-03-22T20:26:17.500Z,54.73
2019-03-22T20:28:47.127Z,51.40
2019-03-22T20:31:16.654Z,48.77
2019-03-22T20:33:46.180Z,55.90
2019-03-22T20:36:15.799Z,53.07
2019-03-22T20:38:45.349Z,32.90
2019-03-22T20:41:14.784Z,48.03
2019-03-22T20:43:44.311Z,49.87
2019-03-22T20:46:13.959Z,54.87
2019-03-22T20:48:43.633Z,56.73
2019-03-22T20:51:13.178Z,52.57
2019-03-22T20:53:42.781Z,57.63
2019-03-22T20:56:12.392Z,53.23
2019-03-22T20:58:41.861Z,51.60
2019-03-22T21:01:11.576Z,49.70
2019-03-22T21:03:41.156Z,51.60
2019-03-22T21:06:10.712Z,42.87
2019-03-22T21:08:40.435Z,52.33
2019-03-22T21:11:10.064Z,52.17
2019-03-22T21:13:39.721Z,54.17
2019-03-22T21:16:09.370Z,54.60
2019-03-22T21:18:38.907Z,54.17
2019-03-22T21:21:08.524Z,53.93
2019-03-22T21:23:38.146Z,55.80
2019-03-22T21:26:07.820Z,54.73
2019-03-22T21:28:37.444Z,47.97
2019-03-22T21:31:06.935Z,50.60
2019-03-22T21:33:36.460Z,51.33
2019-03-22T21:36:06.174Z,43.03
2019-03-22T21:38:35.719Z,53.67
2019-03-22T21:41:05.390Z,43.53
2019-03-22T21:43:34.992Z,46.00
2019-03-22T21:46:04.720Z,47.67
2019-03-22T21:48:34.307Z,49.77
2019-03-22T21:51:03.971Z,54.70
2019-03-22T21:53:33.612Z,48.77
2019-03-22T21:56:03.126Z,53.70
2019-03-22T21:58:32.795Z,52.20
2019-03-22T22:01:02.596Z,52.20
2019-03-22T22:03:32.131Z,54.97
2019-03-22T22:06:01.739Z,54.87
2019-03-22T22:08:31.403Z,55.10
2019-03-22T22:11:01.044Z,53.40
2019-03-22T22:13:30.651Z,51.13
2019-03-22T22:16:00.227Z,52.70
2019-03-22T22:18:29.863Z,49.10
2019-03-22T22:20:59.500Z,46.10
2019-03-22T22:23:29.210Z,46.30
2019-03-22T22:25:59.128Z,54.27
2019-03-22T22:28:28.684Z,52.23
2019-03-22T22:30:58.224Z,51.53
2019-03-22T22:33:27.899Z,53.27
2019-03-22T22:35:58.835Z,43.30
2019-03-22T22:38:28.724Z,52.37
2019-03-22T22:40:58.338Z,51.43
2019-03-22T22:43:27.967Z,50.97
2019-03-22T22:45:57.623Z,53.60
2019-03-22T22:48:27.220Z,48.90
2019-03-22T22:50:56.856Z,48.43
2019-03-22T22:53:26.503Z,48.40
2019-03-22T22:55:56.006Z,43.40
2019-03-22T22:58:25.571Z,49.63
2019-03-22T23:00:55.274Z,46.83
2019-03-22T23:03:24.955Z,43.10
2019-03-22T23:05:54.519Z,46.60
2019-03-22T23:08:24.059Z,44.53
2019-03-22T23:10:54.076Z,46.20
2019-03-22T23:13:23.691Z,41.87
2019-03-22T23:15:53.401Z,41.07
2019-03-22T23:18:22.944Z,42.57
2019-03-22T23:20:52.540Z,40.10
2019-03-22T23:23:22.116Z,41.97
2019-03-22T23:25:51.791Z,41.23
2019-03-22T23:28:21.304Z,40.73
2019-03-22T23:30:50.890Z,40.70
2019-03-22T23:33:20.649Z,38.73
2019-03-22T23:35:50.239Z,37.80
2019-03-22T23:38:19.819Z,38.27
2019-03-22T23:40:49.403Z,38.77
2019-03-22T23:43:19.067Z,39.70
2019-03-22T23:45:48.603Z,37.90
2019-03-22T23:48:18.149Z,41.97
2019-03-22T23:50:47.683Z,46.13
2019-03-22T23:53:17.295Z,44.97
2019-03-22T23:55:46.957Z,44.83
2019-03-22T23:58:16.517Z,46.57
